HOQ weather

Hof-Plauen Airport
Hof, Bavaria, Germany

Public forecast

Using degrees Celsius for public forecast. Weather courtesy of forecast.io.

Current aviation weather report (METAR) for Hof-Plauen Airport

Retrieved 2020/06/02 07:50 UTC (28 minutes ago):

EDQM 020750Z 04006KT 320V070 CAVOK 16/07 Q1020

Closest aviation forecast (TAF) to Hof-Plauen Airport

Forecast is more than 6 hours old.

Closest forecast is Grafenwohr Army Air Field, 35.6 nm (65.9 km) S. Retrieved 2020-06-02 02:00 UTC (6 hours ago):

TAF ETIC 020200Z 0202/0308 00000KT 9999 SKC QNH3007INS BECMG 0207/0208 03010G15KT 9999 FEW035 QNH3003INS BECMG 0212/0213 04009KT 9999 BKN060 QNH3000INS BECMG 0221/0222 VRB02KT 6000 BR SKC QNH2991INS TEMPO 0302/0305 3200 BECMG 0307/0308 21007KT 9999 NSW SCT045 QNH2982INS TX24/0215Z TN06/0203Z